sensor_id;sensor_type;location;lat;lon;timestamp;pressure;altitude;pressure_sealevel;temperature;humidity
74627;BME280;63132;52.268;5.192;2024-03-29T00:02:13;98818.06;;;12.62;49.73
74627;BME280;63132;52.268;5.192;2024-03-29T00:04:38;98821.94;;;12.56;49.64
74627;BME280;63132;52.268;5.192;2024-03-29T00:07:04;98804.88;;;12.39;50.32
74627;BME280;63132;52.268;5.192;2024-03-29T00:09:29;98815.03;;;12.42;49.70
74627;BME280;63132;52.268;5.192;2024-03-29T00:11:55;98813.53;;;12.23;50.74
74627;BME280;63132;52.268;5.192;2024-03-29T00:14:20;98810.59;;;12.26;50.55
74627;BME280;63132;52.268;5.192;2024-03-29T00:16:46;98819.69;;;12.27;50.36
74627;BME280;63132;52.268;5.192;2024-03-29T00:19:12;98815.09;;;12.14;50.37
74627;BME280;63132;52.268;5.192;2024-03-29T00:21:37;98821.22;;;12.28;50.42
74627;BME280;63132;52.268;5.192;2024-03-29T00:24:02;98816.31;;;12.23;50.59
74627;BME280;63132;52.268;5.192;2024-03-29T00:26:27;98824.63;;;12.13;50.75
74627;BME280;63132;52.268;5.192;2024-03-29T00:28:53;98812.00;;;12.03;51.03
74627;BME280;63132;52.268;5.192;2024-03-29T00:31:18;98818.91;;;11.99;51.04
74627;BME280;63132;52.268;5.192;2024-03-29T00:33:43;98827.22;;;11.99;51.50
74627;BME280;63132;52.268;5.192;2024-03-29T00:36:09;98828.03;;;12.08;51.00
74627;BME280;63132;52.268;5.192;2024-03-29T00:38:34;98826.94;;;12.06;50.99
74627;BME280;63132;52.268;5.192;2024-03-29T00:40:59;98825.56;;;12.10;50.39
74627;BME280;63132;52.268;5.192;2024-03-29T00:43:24;98828.47;;;12.34;49.95
74627;BME280;63132;52.268;5.192;2024-03-29T00:45:50;98834.31;;;12.27;50.01
74627;BME280;63132;52.268;5.192;2024-03-29T00:48:15;98835.69;;;12.41;50.14
74627;BME280;63132;52.268;5.192;2024-03-29T00:50:42;98831.88;;;12.11;50.05
74627;BME280;63132;52.268;5.192;2024-03-29T00:53:08;98832.47;;;12.24;50.55
74627;BME280;63132;52.268;5.192;2024-03-29T00:55:33;98836.31;;;12.27;49.87
74627;BME280;63132;52.268;5.192;2024-03-29T00:57:59;98835.09;;;12.18;49.73
74627;BME280;63132;52.268;5.192;2024-03-29T01:00:24;98838.03;;;12.24;50.18
74627;BME280;63132;52.268;5.192;2024-03-29T01:02:49;98837.56;;;12.16;50.01
74627;BME280;63132;52.268;5.192;2024-03-29T01:05:15;98839.41;;;12.10;50.34
74627;BME280;63132;52.268;5.192;2024-03-29T01:07:41;98849.75;;;12.10;50.24
74627;BME280;63132;52.268;5.192;2024-03-29T01:10:07;98838.50;;;12.23;49.93
74627;BME280;63132;52.268;5.192;2024-03-29T01:12:34;98842.50;;;12.12;50.07
74627;BME280;63132;52.268;5.192;2024-03-29T01:14:59;98849.75;;;12.19;49.93
74627;BME280;63132;52.268;5.192;2024-03-29T01:17:24;98840.81;;;12.15;49.74
74627;BME280;63132;52.268;5.192;2024-03-29T01:19:50;98841.88;;;11.99;50.38
74627;BME280;63132;52.268;5.192;2024-03-29T01:22:15;98841.25;;;12.13;50.41
74627;BME280;63132;52.268;5.192;2024-03-29T01:24:40;98835.56;;;11.89;50.75
74627;BME280;63132;52.268;5.192;2024-03-29T01:27:05;98836.94;;;12.12;50.34
74627;BME280;63132;52.268;5.192;2024-03-29T01:29:31;98843.75;;;11.93;50.77
74627;BME280;63132;52.268;5.192;2024-03-29T01:31:57;98838.44;;;11.77;51.30
74627;BME280;63132;52.268;5.192;2024-03-29T01:34:22;98840.19;;;11.93;50.49
74627;BME280;63132;52.268;5.192;2024-03-29T01:36:47;98847.13;;;11.97;50.71
74627;BME280;63132;52.268;5.192;2024-03-29T01:39:13;98833.81;;;11.74;51.12
74627;BME280;63132;52.268;5.192;2024-03-29T01:41:40;98842.34;;;11.98;50.68
74627;BME280;63132;52.268;5.192;2024-03-29T01:44:06;98830.09;;;11.58;51.70
74627;BME280;63132;52.268;5.192;2024-03-29T01:46:35;98827.72;;;11.88;51.46
74627;BME280;63132;52.268;5.192;2024-03-29T01:49:01;98824.63;;;11.95;50.83
74627;BME280;63132;52.268;5.192;2024-03-29T01:51:27;98807.69;;;12.02;50.71
74627;BME280;63132;52.268;5.192;2024-03-29T01:53:54;98812.75;;;12.04;50.99
74627;BME280;63132;52.268;5.192;2024-03-29T01:58:56;98798.28;;;12.09;50.80
74627;BME280;63132;52.268;5.192;2024-03-29T02:01:24;98805.97;;;12.05;51.02
74627;BME280;63132;52.268;5.192;2024-03-29T02:03:51;98794.88;;;11.96;50.81
74627;BME280;63132;52.268;5.192;2024-03-29T02:06:17;98793.03;;;12.11;50.09
74627;BME280;63132;52.268;5.192;2024-03-29T02:08:42;98805.81;;;11.99;50.71
74627;BME280;63132;52.268;5.192;2024-03-29T02:11:08;98815.22;;;12.11;50.55
74627;BME280;63132;52.268;5.192;2024-03-29T02:13:33;98803.66;;;12.03;50.55
74627;BME280;63132;52.268;5.192;2024-03-29T02:15:59;98808.28;;;11.97;50.97
74627;BME280;63132;52.268;5.192;2024-03-29T02:18:24;98800.44;;;11.96;51.14
74627;BME280;63132;52.268;5.192;2024-03-29T02:20:49;98812.13;;;11.81;51.44
74627;BME280;63132;52.268;5.192;2024-03-29T02:23:20;98827.34;;;11.77;51.66
74627;BME280;63132;52.268;5.192;2024-03-29T02:25:51;98829.69;;;11.78;51.69
74627;BME280;63132;52.268;5.192;2024-03-29T02:28:16;98828.31;;;11.83;51.46
74627;BME280;63132;52.268;5.192;2024-03-29T02:30:44;98835.19;;;11.69;51.61
74627;BME280;63132;52.268;5.192;2024-03-29T02:33:10;98833.06;;;11.73;51.77
74627;BME280;63132;52.268;5.192;2024-03-29T02:35:35;98832.44;;;11.78;51.27
74627;BME280;63132;52.268;5.192;2024-03-29T02:38:00;98835.06;;;11.73;51.71
74627;BME280;63132;52.268;5.192;2024-03-29T02:40:26;98837.84;;;11.73;51.81
74627;BME280;63132;52.268;5.192;2024-03-29T02:42:51;98832.88;;;11.68;51.82
74627;BME280;63132;52.268;5.192;2024-03-29T02:45:16;98835.94;;;11.42;52.21
74627;BME280;63132;52.268;5.192;2024-03-29T02:47:42;98839.06;;;11.62;51.99
74627;BME280;63132;52.268;5.192;2024-03-29T02:50:10;98840.53;;;11.36;52.52
74627;BME280;63132;52.268;5.192;2024-03-29T02:52:36;98846.94;;;11.24;53.08
74627;BME280;63132;52.268;5.192;2024-03-29T02:55:02;98849.06;;;11.11;53.24
74627;BME280;63132;52.268;5.192;2024-03-29T02:57:27;98846.59;;;11.13;53.22
74627;BME280;63132;52.268;5.192;2024-03-29T02:59:52;98848.16;;;11.23;52.90
74627;BME280;63132;52.268;5.192;2024-03-29T03:02:18;98850.63;;;11.21;52.90
74627;BME280;63132;52.268;5.192;2024-03-29T03:04:43;98849.50;;;11.09;53.58
74627;BME280;63132;52.268;5.192;2024-03-29T03:07:08;98853.59;;;11.26;52.91
74627;BME280;63132;52.268;5.192;2024-03-29T03:09:52;98848.81;;;11.27;53.00
74627;BME280;63132;52.268;5.192;2024-03-29T03:12:36;98843.66;;;11.47;52.40
74627;BME280;63132;52.268;5.192;2024-03-29T03:15:02;98829.63;;;11.60;52.09
74627;BME280;63132;52.268;5.192;2024-03-29T03:17:28;98836.88;;;11.67;51.42
74627;BME280;63132;52.268;5.192;2024-03-29T03:19:53;98852.84;;;11.44;51.96
74627;BME280;63132;52.268;5.192;2024-03-29T03:22:19;98855.63;;;11.44;51.91
74627;BME280;63132;52.268;5.192;2024-03-29T03:24:44;98850.44;;;11.55;52.26
74627;BME280;63132;52.268;5.192;2024-03-29T03:27:10;98851.03;;;11.59;51.18
74627;BME280;63132;52.268;5.192;2024-03-29T03:29:35;98846.00;;;11.76;51.14
74627;BME280;63132;52.268;5.192;2024-03-29T03:32:00;98847.97;;;11.67;51.38
74627;BME280;63132;52.268;5.192;2024-03-29T03:34:25;98862.81;;;11.91;50.89
74627;BME280;63132;52.268;5.192;2024-03-29T03:36:51;98850.19;;;11.90;50.42
74627;BME280;63132;52.268;5.192;2024-03-29T03:39:16;98855.59;;;11.94;50.70
74627;BME280;63132;52.268;5.192;2024-03-29T03:41:41;98860.06;;;12.18;49.78
74627;BME280;63132;52.268;5.192;2024-03-29T03:44:06;98859.78;;;12.16;49.95
74627;BME280;63132;52.268;5.192;2024-03-29T03:46:32;98856.69;;;12.14;49.89
74627;BME280;63132;52.268;5.192;2024-03-29T03:48:57;98859.28;;;12.27;49.22
74627;BME280;63132;52.268;5.192;2024-03-29T03:51:22;98861.47;;;11.96;50.37
74627;BME280;63132;52.268;5.192;2024-03-29T03:53:48;98869.47;;;11.94;50.25
74627;BME280;63132;52.268;5.192;2024-03-29T03:56:13;98861.78;;;12.07;49.92
74627;BME280;63132;52.268;5.192;2024-03-29T03:58:38;98863.72;;;11.79;50.23
74627;BME280;63132;52.268;5.192;2024-03-29T04:01:05;98866.06;;;11.99;50.27
74627;BME280;63132;52.268;5.192;2024-03-29T04:03:30;98878.44;;;12.16;50.01
74627;BME280;63132;52.268;5.192;2024-03-29T04:05:56;98855.16;;;12.23;49.55
74627;BME280;63132;52.268;5.192;2024-03-29T04:08:22;98884.41;;;12.05;50.24
74627;BME280;63132;52.268;5.192;2024-03-29T04:10:47;98876.88;;;12.06;50.21
74627;BME280;63132;52.268;5.192;2024-03-29T04:13:12;98873.31;;;12.05;50.12
74627;BME280;63132;52.268;5.192;2024-03-29T04:15:38;98873.34;;;12.14;49.89
74627;BME280;63132;52.268;5.192;2024-03-29T04:18:03;98877.97;;;12.08;50.08
74627;BME280;63132;52.268;5.192;2024-03-29T04:20:29;98858.38;;;12.12;49.83
74627;BME280;63132;52.268;5.192;2024-03-29T04:22:54;98872.09;;;12.25;50.12
74627;BME280;63132;52.268;5.192;2024-03-29T04:25:19;98865.63;;;12.28;49.81
74627;BME280;63132;52.268;5.192;2024-03-29T04:27:44;98868.41;;;12.18;50.30
74627;BME280;63132;52.268;5.192;2024-03-29T04:30:10;98869.94;;;12.19;50.41
74627;BME280;63132;52.268;5.192;2024-03-29T04:32:35;98866.56;;;12.25;50.00
74627;BME280;63132;52.268;5.192;2024-03-29T04:35:00;98875.19;;;12.08;50.43
74627;BME280;63132;52.268;5.192;2024-03-29T04:37:26;98869.03;;;12.23;50.52
74627;BME280;63132;52.268;5.192;2024-03-29T04:39:51;98871.47;;;12.11;50.51
74627;BME280;63132;52.268;5.192;2024-03-29T04:42:17;98872.88;;;12.25;50.62
74627;BME280;63132;52.268;5.192;2024-03-29T04:44:42;98873.94;;;12.18;50.62
74627;BME280;63132;52.268;5.192;2024-03-29T04:47:08;98869.03;;;12.23;50.55
74627;BME280;63132;52.268;5.192;2024-03-29T04:49:33;98876.13;;;12.14;51.05
74627;BME280;63132;52.268;5.192;2024-03-29T04:52:00;98875.31;;;12.14;50.78
74627;BME280;63132;52.268;5.192;2024-03-29T04:54:26;98865.31;;;12.26;51.03
74627;BME280;63132;52.268;5.192;2024-03-29T04:56:52;98865.94;;;12.30;50.60
74627;BME280;63132;52.268;5.192;2024-03-29T04:59:18;98864.22;;;12.41;50.29
74627;BME280;63132;52.268;5.192;2024-03-29T05:01:43;98880.44;;;12.25;51.02
74627;BME280;63132;52.268;5.192;2024-03-29T05:04:10;98890.28;;;12.26;50.97
74627;BME280;63132;52.268;5.192;2024-03-29T05:06:35;98881.81;;;12.38;50.67
74627;BME280;63132;52.268;5.192;2024-03-29T05:09:00;98878.88;;;12.33;50.78
74627;BME280;63132;52.268;5.192;2024-03-29T05:11:26;98894.31;;;12.52;50.78
74627;BME280;63132;52.268;5.192;2024-03-29T05:13:51;98885.97;;;12.34;51.16
74627;BME280;63132;52.268;5.192;2024-03-29T05:16:16;98898.47;;;12.38;51.64
74627;BME280;63132;52.268;5.192;2024-03-29T05:18:42;98893.53;;;12.42;51.63
74627;BME280;63132;52.268;5.192;2024-03-29T05:21:09;98897.72;;;12.38;51.76
74627;BME280;63132;52.268;5.192;2024-03-29T05:23:34;98903.69;;;12.27;52.04
74627;BME280;63132;52.268;5.192;2024-03-29T05:26:00;98897.84;;;12.25;52.04
74627;BME280;63132;52.268;5.192;2024-03-29T05:28:25;98890.94;;;12.30;51.78
74627;BME280;63132;52.268;5.192;2024-03-29T05:30:54;98896.00;;;12.40;52.09
74627;BME280;63132;52.268;5.192;2024-03-29T05:33:20;98908.47;;;12.08;53.05
74627;BME280;63132;52.268;5.192;2024-03-29T05:35:45;98902.94;;;12.45;51.68
74627;BME280;63132;52.268;5.192;2024-03-29T05:38:11;98894.00;;;12.41;51.97
74627;BME280;63132;52.268;5.192;2024-03-29T05:40:36;98907.88;;;12.41;52.57
74627;BME280;63132;52.268;5.192;2024-03-29T05:43:03;98899.38;;;12.35;52.50
74627;BME280;63132;52.268;5.192;2024-03-29T05:45:30;98916.06;;;12.54;52.65
74627;BME280;63132;52.268;5.192;2024-03-29T05:47:57;98910.97;;;12.15;53.76
74627;BME280;63132;52.268;5.192;2024-03-29T05:50:24;98922.69;;;12.47;54.06
74627;BME280;63132;52.268;5.192;2024-03-29T05:52:53;98918.22;;;12.31;54.90
74627;BME280;63132;52.268;5.192;2024-03-29T05:55:18;98928.22;;;12.47;55.28
74627;BME280;63132;52.268;5.192;2024-03-29T05:57:44;98917.13;;;12.47;55.89
74627;BME280;63132;52.268;5.192;2024-03-29T06:00:13;98924.06;;;12.33;56.67
74627;BME280;63132;52.268;5.192;2024-03-29T06:02:39;98926.22;;;12.20;57.09
74627;BME280;63132;52.268;5.192;2024-03-29T06:05:05;98923.59;;;12.26;57.50
74627;BME280;63132;52.268;5.192;2024-03-29T06:07:32;98919.59;;;12.45;57.28
74627;BME280;63132;52.268;5.192;2024-03-29T06:09:59;98932.22;;;12.28;58.13
74627;BME280;63132;52.268;5.192;2024-03-29T06:12:26;98923.59;;;12.26;58.46
74627;BME280;63132;52.268;5.192;2024-03-29T06:14:54;98929.75;;;12.02;58.85
74627;BME280;63132;52.268;5.192;2024-03-29T06:17:38;98944.38;;;12.03;59.67
74627;BME280;63132;52.268;5.192;2024-03-29T06:20:04;98951.81;;;12.15;60.40
74627;BME280;63132;52.268;5.192;2024-03-29T06:22:30;98941.44;;;12.06;60.66
74627;BME280;63132;52.268;5.192;2024-03-29T06:24:56;98943.63;;;12.20;60.29
74627;BME280;63132;52.268;5.192;2024-03-29T06:27:32;98937.38;;;11.80;61.44
74627;BME280;63132;52.268;5.192;2024-03-29T06:29:58;98938.50;;;11.91;61.76
74627;BME280;63132;52.268;5.192;2024-03-29T06:32:24;98948.81;;;11.91;61.72
74627;BME280;63132;52.268;5.192;2024-03-29T06:38:21;98971.94;;;11.88;62.03
74627;BME280;63132;52.268;5.192;2024-03-29T06:40:55;98970.59;;;12.20;61.50
74627;BME280;63132;52.268;5.192;2024-03-29T06:43:21;98967.22;;;12.25;61.13
74627;BME280;63132;52.268;5.192;2024-03-29T06:45:49;98971.41;;;12.57;60.85
74627;BME280;63132;52.268;5.192;2024-03-29T06:48:14;98962.63;;;12.77;59.71
74627;BME280;63132;52.268;5.192;2024-03-29T06:50:41;98964.00;;;12.63;60.41
74627;BME280;63132;52.268;5.192;2024-03-29T06:53:06;98958.59;;;12.96;59.50
74627;BME280;63132;52.268;5.192;2024-03-29T06:55:31;98953.59;;;13.19;59.25
74627;BME280;63132;52.268;5.192;2024-03-29T06:57:56;98961.19;;;13.09;59.10
74627;BME280;63132;52.268;5.192;2024-03-29T07:00:24;98955.16;;;13.11;58.67
74627;BME280;63132;52.268;5.192;2024-03-29T07:02:50;98947.75;;;13.08;58.52
74627;BME280;63132;52.268;5.192;2024-03-29T07:05:15;98959.16;;;13.28;58.48
74627;BME280;63132;52.268;5.192;2024-03-29T07:07:49;98963.06;;;13.64;57.16
74627;BME280;63132;52.268;5.192;2024-03-29T07:10:15;98963.09;;;13.88;56.33
74627;BME280;63132;52.268;5.192;2024-03-29T07:12:40;98957.53;;;13.88;56.57
74627;BME280;63132;52.268;5.192;2024-03-29T07:15:09;98966.28;;;13.62;56.05
74627;BME280;63132;52.268;5.192;2024-03-29T07:17:34;98973.13;;;13.94;55.65
74627;BME280;63132;52.268;5.192;2024-03-29T07:20:00;98960.31;;;14.11;55.14
74627;BME280;63132;52.268;5.192;2024-03-29T07:22:25;98965.59;;;14.09;55.00
74627;BME280;63132;52.268;5.192;2024-03-29T07:24:50;98966.69;;;13.79;56.06
74627;BME280;63132;52.268;5.192;2024-03-29T07:27:16;98964.13;;;13.66;56.58
74627;BME280;63132;52.268;5.192;2024-03-29T07:29:43;98968.31;;;13.62;56.19
74627;BME280;63132;52.268;5.192;2024-03-29T07:32:09;98972.31;;;13.61;56.43
74627;BME280;63132;52.268;5.192;2024-03-29T07:34:41;98963.94;;;13.70;56.42
74627;BME280;63132;52.268;5.192;2024-03-29T07:37:12;98990.16;;;13.87;54.93
74627;BME280;63132;52.268;5.192;2024-03-29T07:39:41;98991.22;;;13.90;55.39
74627;BME280;63132;52.268;5.192;2024-03-29T07:42:08;98995.69;;;14.20;53.88
74627;BME280;63132;52.268;5.192;2024-03-29T07:44:33;98995.16;;;14.31;53.94
74627;BME280;63132;52.268;5.192;2024-03-29T07:50:30;99014.94;;;14.81;52.18
74627;BME280;63132;52.268;5.192;2024-03-29T07:52:55;99007.72;;;14.74;53.01
74627;BME280;63132;52.268;5.192;2024-03-29T07:55:27;99016.81;;;14.99;52.43
74627;BME280;63132;52.268;5.192;2024-03-29T07:57:55;99006.81;;;15.07;52.10
74627;BME280;63132;52.268;5.192;2024-03-29T08:00:21;99007.94;;;14.85;51.96
74627;BME280;63132;52.268;5.192;2024-03-29T08:02:50;99000.88;;;15.14;51.22
74627;BME280;63132;52.268;5.192;2024-03-29T08:05:17;98999.75;;;14.82;52.35
74627;BME280;63132;52.268;5.192;2024-03-29T08:07:43;98989.38;;;14.82;52.37
74627;BME280;63132;52.268;5.192;2024-03-29T08:10:14;98985.72;;;14.76;51.59
74627;BME280;63132;52.268;5.192;2024-03-29T08:12:39;98982.09;;;14.85;52.05
74627;BME280;63132;52.268;5.192;2024-03-29T08:15:05;98978.84;;;15.16;51.35
74627;BME280;63132;52.268;5.192;2024-03-29T08:17:34;98977.84;;;14.89;51.59
74627;BME280;63132;52.268;5.192;2024-03-29T08:20:03;98980.59;;;15.43;50.98
74627;BME280;63132;52.268;5.192;2024-03-29T08:22:32;98988.31;;;14.80;51.72
74627;BME280;63132;52.268;5.192;2024-03-29T08:25:01;99009.72;;;14.74;52.61
74627;BME280;63132;52.268;5.192;2024-03-29T08:27:27;99010.81;;;14.52;53.01
74627;BME280;63132;52.268;5.192;2024-03-29T08:29:58;99000.13;;;14.75;52.55
74627;BME280;63132;52.268;5.192;2024-03-29T08:32:23;98993.34;;;14.90;52.95
74627;BME280;63132;52.268;5.192;2024-03-29T08:34:52;99006.16;;;14.73;52.79
74627;BME280;63132;52.268;5.192;2024-03-29T08:37:17;99003.66;;;14.99;51.83
74627;BME280;63132;52.268;5.192;2024-03-29T08:39:43;99002.31;;;15.24;52.26
74627;BME280;63132;52.268;5.192;2024-03-29T08:42:08;99008.75;;;14.62;52.10
74627;BME280;63132;52.268;5.192;2024-03-29T08:44:37;99026.50;;;14.40;52.59
74627;BME280;63132;52.268;5.192;2024-03-29T08:47:08;99039.34;;;14.47;53.27
74627;BME280;63132;52.268;5.192;2024-03-29T08:49:35;99031.75;;;14.48;52.70
74627;BME280;63132;52.268;5.192;2024-03-29T08:52:03;99021.63;;;14.74;52.54
74627;BME280;63132;52.268;5.192;2024-03-29T08:54:31;99038.81;;;15.11;51.13
74627;BME280;63132;52.268;5.192;2024-03-29T08:56:56;99040.97;;;15.46;50.64
74627;BME280;63132;52.268;5.192;2024-03-29T08:59:22;99033.94;;;15.06;50.54
74627;BME280;63132;52.268;5.192;2024-03-29T09:01:49;99028.34;;;14.91;51.63
74627;BME280;63132;52.268;5.192;2024-03-29T09:04:15;99022.50;;;15.19;51.16
74627;BME280;63132;52.268;5.192;2024-03-29T09:06:41;99024.22;;;15.02;52.40
74627;BME280;63132;52.268;5.192;2024-03-29T09:09:16;99033.28;;;15.41;51.79
74627;BME280;63132;52.268;5.192;2024-03-29T09:11:41;99031.09;;;15.74;50.90
74627;BME280;63132;52.268;5.192;2024-03-29T09:14:06;99043.50;;;15.59;50.37
74627;BME280;63132;52.268;5.192;2024-03-29T09:16:34;99040.00;;;15.93;50.64
74627;BME280;63132;52.268;5.192;2024-03-29T09:18:59;99045.03;;;15.89;50.87
74627;BME280;63132;52.268;5.192;2024-03-29T09:21:25;99040.72;;;16.09;50.27
74627;BME280;63132;52.268;5.192;2024-03-29T09:24:16;99038.41;;;16.22;49.47
74627;BME280;63132;52.268;5.192;2024-03-29T09:26:43;99047.75;;;16.19;50.08
74627;BME280;63132;52.268;5.192;2024-03-29T09:29:08;99054.56;;;16.53;48.95
74627;BME280;63132;52.268;5.192;2024-03-29T09:31:52;99068.53;;;16.53;49.06
74627;BME280;63132;52.268;5.192;2024-03-29T09:34:26;99062.34;;;17.04;47.91
74627;BME280;63132;52.268;5.192;2024-03-29T09:36:51;99064.69;;;17.32;47.20
74627;BME280;63132;52.268;5.192;2024-03-29T09:39:17;99074.38;;;17.62;46.57
74627;BME280;63132;52.268;5.192;2024-03-29T09:41:44;99065.38;;;18.05;45.83
74627;BME280;63132;52.268;5.192;2024-03-29T09:44:10;99065.00;;;17.13;46.37
74627;BME280;63132;52.268;5.192;2024-03-29T09:46:36;99073.38;;;17.60;45.58
74627;BME280;63132;52.268;5.192;2024-03-29T09:49:07;99072.78;;;16.83;47.46
74627;BME280;63132;52.268;5.192;2024-03-29T09:51:34;99084.34;;;17.37;46.35
74627;BME280;63132;52.268;5.192;2024-03-29T09:54:03;99077.09;;;17.51;46.05
74627;BME280;63132;52.268;5.192;2024-03-29T09:56:30;99098.59;;;18.23;44.73
74627;BME280;63132;52.268;5.192;2024-03-29T09:58:55;99096.91;;;17.01;46.89
74627;BME280;63132;52.268;5.192;2024-03-29T10:01:28;99096.97;;;17.53;45.97
74627;BME280;63132;52.268;5.192;2024-03-29T10:04:05;99093.84;;;17.25;45.91
74627;BME280;63132;52.268;5.192;2024-03-29T10:06:34;99087.84;;;17.32;46.30
74627;BME280;63132;52.268;5.192;2024-03-29T10:09:00;99081.66;;;16.82;47.17
74627;BME280;63132;52.268;5.192;2024-03-29T10:11:26;99075.75;;;16.59;48.02
74627;BME280;63132;52.268;5.192;2024-03-29T10:13:51;99081.88;;;16.43;48.44
74627;BME280;63132;52.268;5.192;2024-03-29T10:16:20;99082.63;;;16.09;48.86
74627;BME280;63132;52.268;5.192;2024-03-29T10:18:49;99081.16;;;16.28;48.82
74627;BME280;63132;52.268;5.192;2024-03-29T10:21:15;99076.22;;;16.58;48.15
74627;BME280;63132;52.268;5.192;2024-03-29T10:23:43;99077.47;;;16.72;47.76
74627;BME280;63132;52.268;5.192;2024-03-29T10:26:09;99078.16;;;17.07;47.01
74627;BME280;63132;52.268;5.192;2024-03-29T10:28:34;99074.38;;;17.62;45.81
74627;BME280;63132;52.268;5.192;2024-03-29T10:31:04;99080.59;;;17.46;45.66
74627;BME280;63132;52.268;5.192;2024-03-29T10:33:33;99085.75;;;17.27;46.30
74627;BME280;63132;52.268;5.192;2024-03-29T10:36:00;99093.84;;;17.25;46.45
74627;BME280;63132;52.268;5.192;2024-03-29T10:38:33;99074.63;;;17.12;46.73
74627;BME280;63132;52.268;5.192;2024-03-29T10:40:59;99098.72;;;16.84;47.73
74627;BME280;63132;52.268;5.192;2024-03-29T10:43:29;99095.78;;;17.39;46.06
74627;BME280;63132;52.268;5.192;2024-03-29T10:45:55;99105.41;;;17.59;45.73
74627;BME280;63132;52.268;5.192;2024-03-29T10:48:25;99096.13;;;17.99;45.21
74627;BME280;63132;52.268;5.192;2024-03-29T10:50:59;99090.69;;;17.64;45.27
74627;BME280;63132;52.268;5.192;2024-03-29T10:53:27;99089.88;;;17.84;44.88
74627;BME280;63132;52.268;5.192;2024-03-29T10:55:58;99093.44;;;17.32;46.23
74627;BME280;63132;52.268;5.192;2024-03-29T10:58:28;99094.63;;;17.05;47.10
74627;BME280;63132;52.268;5.192;2024-03-29T11:00:57;99102.25;;;17.05;46.91
74627;BME280;63132;52.268;5.192;2024-03-29T11:03:38;99112.56;;;17.60;45.44
74627;BME280;63132;52.268;5.192;2024-03-29T11:06:06;99108.09;;;17.01;46.59
74627;BME280;63132;52.268;5.192;2024-03-29T11:08:33;99118.34;;;17.56;46.05
74627;BME280;63132;52.268;5.192;2024-03-29T11:11:04;99122.75;;;17.37;46.81
74627;BME280;63132;52.268;5.192;2024-03-29T11:15:55;99139.47;;;16.55;48.10
74627;BME280;63132;52.268;5.192;2024-03-29T11:18:20;99126.09;;;17.21;47.45
74627;BME280;63132;52.268;5.192;2024-03-29T11:20:47;99128.50;;;16.87;47.83
74627;BME280;63132;52.268;5.192;2024-03-29T11:23:18;99137.97;;;16.75;47.88
74627;BME280;63132;52.268;5.192;2024-03-29T11:25:55;99136.81;;;17.02;47.80
74627;BME280;63132;52.268;5.192;2024-03-29T11:31:26;99132.09;;;18.06;45.04
74627;BME280;63132;52.268;5.192;2024-03-29T11:33:56;99125.03;;;18.53;43.90
74627;BME280;63132;52.268;5.192;2024-03-29T11:36:23;99125.72;;;18.06;45.09
74627;BME280;63132;52.268;5.192;2024-03-29T11:38:53;99134.31;;;18.28;44.51
74627;BME280;63132;52.268;5.192;2024-03-29T11:41:20;99126.63;;;17.91;45.01
74627;BME280;63132;52.268;5.192;2024-03-29T11:43:53;99131.78;;;17.98;45.17
74627;BME280;63132;52.268;5.192;2024-03-29T11:46:21;99120.13;;;17.80;45.87
74627;BME280;63132;52.268;5.192;2024-03-29T11:48:47;99124.19;;;18.05;44.00
74627;BME280;63132;52.268;5.192;2024-03-29T11:51:16;99121.88;;;17.51;43.75
74627;BME280;63132;52.268;5.192;2024-03-29T11:53:42;99126.59;;;17.65;44.71
74627;BME280;63132;52.268;5.192;2024-03-29T11:56:08;99120.47;;;17.41;45.44
74627;BME280;63132;52.268;5.192;2024-03-29T11:58:34;99121.13;;;17.51;45.10
74627;BME280;63132;52.268;5.192;2024-03-29T12:01:00;99124.25;;;17.58;44.52
74627;BME280;63132;52.268;5.192;2024-03-29T12:03:28;99117.09;;;18.46;42.87
74627;BME280;63132;52.268;5.192;2024-03-29T12:05:55;99125.19;;;18.33;42.81
74627;BME280;63132;52.268;5.192;2024-03-29T12:08:28;99125.56;;;18.95;42.25
74627;BME280;63132;52.268;5.192;2024-03-29T12:10:54;99122.56;;;19.09;41.53
74627;BME280;63132;52.268;5.192;2024-03-29T12:13:19;99134.56;;;19.10;41.42
74627;BME280;63132;52.268;5.192;2024-03-29T12:15:45;99135.28;;;18.57;41.95
74627;BME280;63132;52.268;5.192;2024-03-29T12:18:10;99158.63;;;17.85;43.95
74627;BME280;63132;52.268;5.192;2024-03-29T12:20:39;99155.72;;;17.74;43.54
74627;BME280;63132;52.268;5.192;2024-03-29T12:23:06;99155.56;;;17.83;44.02
74627;BME280;63132;52.268;5.192;2024-03-29T12:25:33;99151.53;;;17.43;44.37
74627;BME280;63132;52.268;5.192;2024-03-29T12:27:59;99143.41;;;17.65;44.37
74627;BME280;63132;52.268;5.192;2024-03-29T12:30:26;99144.34;;;17.83;44.94
74627;BME280;63132;52.268;5.192;2024-03-29T12:33:04;99138.81;;;17.88;44.07
74627;BME280;63132;52.268;5.192;2024-03-29T12:35:31;99150.03;;;17.94;43.12
74627;BME280;63132;52.268;5.192;2024-03-29T12:37:57;99149.34;;;17.99;43.40
74627;BME280;63132;52.268;5.192;2024-03-29T12:40:31;99145.38;;;18.11;43.75
74627;BME280;63132;52.268;5.192;2024-03-29T12:43:07;99148.94;;;18.12;42.93
74627;BME280;63132;52.268;5.192;2024-03-29T12:45:36;99150.78;;;18.52;42.70
74627;BME280;63132;52.268;5.192;2024-03-29T12:48:02;99148.06;;;18.63;42.61
74627;BME280;63132;52.268;5.192;2024-03-29T12:52:54;99143.63;;;18.88;41.35
74627;BME280;63132;52.268;5.192;2024-03-29T12:55:21;99145.28;;;18.69;41.07
74627;BME280;63132;52.268;5.192;2024-03-29T12:57:46;99150.47;;;19.30;40.74
74627;BME280;63132;52.268;5.192;2024-03-29T13:00:12;99143.06;;;19.32;41.14
74627;BME280;63132;52.268;5.192;2024-03-29T13:02:38;99144.03;;;19.18;40.63
74627;BME280;63132;52.268;5.192;2024-03-29T13:05:04;99137.69;;;19.23;40.44
74627;BME280;63132;52.268;5.192;2024-03-29T13:07:30;99140.50;;;19.34;39.67
74627;BME280;63132;52.268;5.192;2024-03-29T13:09:55;99147.44;;;19.45;40.43
74627;BME280;63132;52.268;5.192;2024-03-29T13:12:21;99160.41;;;19.31;39.89
74627;BME280;63132;52.268;5.192;2024-03-29T13:14:47;99149.06;;;19.03;40.70
74627;BME280;63132;52.268;5.192;2024-03-29T13:17:12;99152.28;;;19.39;40.78